createdAt,value
2022-12-14T00:00:13.166Z,7.97
2022-12-14T00:02:41.549Z,9.13
2022-12-14T00:05:10.793Z,7.60
2022-12-14T00:07:39.061Z,8.60
2022-12-14T00:10:08.488Z,8.50
2022-12-14T00:12:36.743Z,9.93
2022-12-14T00:15:08.837Z,8.13
2022-12-14T00:17:37.195Z,7.90
2022-12-14T00:20:07.239Z,8.10
2022-12-14T00:22:35.636Z,7.72
2022-12-14T00:25:04.669Z,8.70
2022-12-14T00:27:33.095Z,8.85
2022-12-14T00:30:01.451Z,8.50
2022-12-14T00:32:31.064Z,9.00
2022-12-14T00:35:01.418Z,7.72
2022-12-14T00:37:29.712Z,7.45
2022-12-14T00:39:58.003Z,9.30
2022-12-14T00:42:26.450Z,7.40
2022-12-14T00:44:54.824Z,7.60
2022-12-14T00:47:23.285Z,7.38
2022-12-14T00:49:53.462Z,8.05
2022-12-14T00:52:21.975Z,8.00
2022-12-14T00:54:50.330Z,7.40
2022-12-14T00:57:18.617Z,7.07
2022-12-14T00:59:46.874Z,6.93
2022-12-14T01:02:15.263Z,7.80
2022-12-14T01:04:43.664Z,7.72
2022-12-14T01:07:13.811Z,7.50
2022-12-14T01:09:42.211Z,8.63
2022-12-14T01:12:10.536Z,8.18
2022-12-14T01:14:38.832Z,8.00
2022-12-14T01:17:08.029Z,7.57
2022-12-14T01:19:36.324Z,7.88
2022-12-14T01:22:05.312Z,8.70
2022-12-14T01:24:34.959Z,7.95
2022-12-14T01:27:03.933Z,8.68
2022-12-14T01:29:32.342Z,6.95
2022-12-14T01:32:00.783Z,7.90
2022-12-14T01:34:29.075Z,7.05
2022-12-14T01:36:57.480Z,7.60
2022-12-14T01:39:25.878Z,6.57
2022-12-14T01:41:55.985Z,8.02
2022-12-14T01:45:04.409Z,6.70
2022-12-14T01:47:42.151Z,7.18
2022-12-14T01:50:19.952Z,6.88
2022-12-14T01:52:52.936Z,7.22
2022-12-14T01:55:26.000Z,7.90
2022-12-14T01:58:01.182Z,7.80
2022-12-14T02:00:29.609Z,6.63
2022-12-14T02:03:03.572Z,7.90
2022-12-14T02:05:34.570Z,8.82
2022-12-14T02:08:04.010Z,7.75
2022-12-14T02:10:34.664Z,7.35
2022-12-14T02:13:14.653Z,7.78
2022-12-14T02:15:44.464Z,7.18
2022-12-14T02:18:19.023Z,6.85
2022-12-14T02:21:06.951Z,9.63
2022-12-14T02:24:18.781Z,6.70
2022-12-14T02:27:11.164Z,6.75
2022-12-14T02:30:00.796Z,7.78
2022-12-14T02:32:50.575Z,6.07
2022-12-14T02:35:28.032Z,7.50
2022-12-14T02:38:08.892Z,6.38
2022-12-14T02:40:46.298Z,6.40
2022-12-14T02:43:24.067Z,6.35
2022-12-14T02:46:04.498Z,6.10
2022-12-14T02:48:40.684Z,6.88
2022-12-14T02:51:19.793Z,7.05
2022-12-14T02:53:54.963Z,5.90
2022-12-14T02:56:32.764Z,6.80
2022-12-14T02:59:02.839Z,7.60
2022-12-14T03:01:33.817Z,7.47
2022-12-14T03:04:03.491Z,7.13
2022-12-14T03:06:32.186Z,6.70
2022-12-14T03:09:05.930Z,6.95
2022-12-14T03:11:42.433Z,6.38
2022-12-14T03:14:17.901Z,7.72
2022-12-14T03:16:52.056Z,7.38
2022-12-14T03:19:25.986Z,6.80
2022-12-14T03:22:00.807Z,7.93
2022-12-14T03:24:35.908Z,7.78
2022-12-14T03:27:13.926Z,7.32
2022-12-14T03:29:46.986Z,6.93
2022-12-14T03:32:24.309Z,7.30
2022-12-14T03:35:01.361Z,6.65
2022-12-14T03:37:39.070Z,6.82
2022-12-14T03:40:11.733Z,6.97
2022-12-14T03:42:49.457Z,6.38
2022-12-14T03:45:24.236Z,5.72
2022-12-14T03:48:11.694Z,7.32
2022-12-14T03:50:46.200Z,7.13
2022-12-14T03:53:22.693Z,7.82
2022-12-14T03:56:02.104Z,6.70
2022-12-14T03:58:41.343Z,6.20
2022-12-14T04:01:18.779Z,7.15
2022-12-14T04:03:59.003Z,7.00
2022-12-14T04:06:35.596Z,8.27
2022-12-14T04:09:16.372Z,7.95
2022-12-14T04:12:09.533Z,6.72
2022-12-14T04:15:08.972Z,9.02
2022-12-14T04:17:57.959Z,7.70
2022-12-14T04:20:32.621Z,7.85
2022-12-14T04:23:08.579Z,7.07
2022-12-14T04:25:59.474Z,7.07
2022-12-14T04:28:50.114Z,7.95
2022-12-14T04:31:24.586Z,7.75
2022-12-14T04:33:58.580Z,6.85
2022-12-14T04:36:35.185Z,7.72
2022-12-14T04:39:10.411Z,7.82
2022-12-14T04:41:46.005Z,7.60
2022-12-14T04:44:22.566Z,6.90
2022-12-14T04:46:54.141Z,7.55
2022-12-14T04:49:30.500Z,6.90
2022-12-14T04:52:06.069Z,7.85
2022-12-14T04:54:43.590Z,6.45
2022-12-14T04:57:19.430Z,7.28
2022-12-14T04:59:49.153Z,7.03
2022-12-14T05:02:28.930Z,7.65
2022-12-14T05:05:04.191Z,6.90
2022-12-14T05:07:48.812Z,7.82
2022-12-14T05:10:21.695Z,7.22
2022-12-14T05:12:58.680Z,6.70
2022-12-14T05:15:33.811Z,6.88
2022-12-14T05:18:04.659Z,6.65
2022-12-14T05:20:33.759Z,6.72
2022-12-14T05:23:03.591Z,7.40
2022-12-14T05:25:31.990Z,7.90
2022-12-14T05:28:00.439Z,8.07
2022-12-14T05:30:29.080Z,6.50
2022-12-14T05:32:57.906Z,6.75
2022-12-14T05:35:26.499Z,8.93
2022-12-14T05:37:55.128Z,7.30
2022-12-14T05:40:24.787Z,8.68
2022-12-14T05:42:55.853Z,7.85
2022-12-14T05:45:24.332Z,7.65
2022-12-14T05:47:52.835Z,6.68
2022-12-14T05:50:24.079Z,8.32
2022-12-14T05:52:52.815Z,6.00
2022-12-14T05:55:21.236Z,7.20
2022-12-14T05:57:51.070Z,9.02
2022-12-14T06:00:20.085Z,8.07
2022-12-14T06:02:48.416Z,7.93
2022-12-14T06:05:16.966Z,7.60
2022-12-14T06:07:45.374Z,7.45
2022-12-14T06:10:13.982Z,7.60
2022-12-14T06:12:43.623Z,6.97
2022-12-14T06:15:14.070Z,7.60
2022-12-14T06:17:44.663Z,6.90
2022-12-14T06:20:14.580Z,6.85
2022-12-14T06:22:47.540Z,7.57
2022-12-14T06:25:16.872Z,7.40
2022-12-14T06:27:45.218Z,7.63
2022-12-14T06:30:16.943Z,6.72
2022-12-14T06:32:45.545Z,7.55
2022-12-14T06:35:14.098Z,7.95
2022-12-14T06:37:42.367Z,6.93
2022-12-14T06:40:17.456Z,7.55
2022-12-14T06:42:47.885Z,7.13
2022-12-14T06:45:17.824Z,7.40
2022-12-14T06:47:46.189Z,6.57
2022-12-14T06:50:15.020Z,6.57
2022-12-14T06:52:43.512Z,7.55
2022-12-14T06:55:11.915Z,6.50
2022-12-14T06:57:40.195Z,7.30
2022-12-14T07:00:12.308Z,7.05
2022-12-14T07:02:42.164Z,7.72
2022-12-14T07:05:10.851Z,7.07
2022-12-14T07:07:39.168Z,6.60
2022-12-14T07:10:10.177Z,7.72
2022-12-14T07:12:38.706Z,7.95
2022-12-14T07:15:08.619Z,8.32
2022-12-14T07:17:38.351Z,8.25
2022-12-14T07:20:10.791Z,7.13
2022-12-14T07:22:40.766Z,7.10
2022-12-14T07:25:09.854Z,8.82
2022-12-14T07:27:38.179Z,8.00
2022-12-14T07:30:09.234Z,9.02
2022-12-14T07:32:37.486Z,7.57
2022-12-14T07:35:13.087Z,8.07
2022-12-14T07:37:49.309Z,7.75
2022-12-14T07:40:18.602Z,8.77
2022-12-14T07:42:50.348Z,7.32
2022-12-14T07:45:19.018Z,7.85
2022-12-14T07:47:47.482Z,7.50
2022-12-14T07:50:18.110Z,9.35
2022-12-14T07:52:46.974Z,8.85
2022-12-14T07:55:16.537Z,8.55
2022-12-14T07:57:44.899Z,8.77
2022-12-14T08:00:14.929Z,8.18
2022-12-14T08:02:43.372Z,7.32
2022-12-14T08:05:12.971Z,7.97
2022-12-14T08:07:42.900Z,8.38
2022-12-14T08:10:11.490Z,7.55
2022-12-14T08:12:40.100Z,8.77
2022-12-14T08:15:10.425Z,7.32
2022-12-14T08:17:38.781Z,7.18
2022-12-14T08:20:08.665Z,7.53
2022-12-14T08:22:37.016Z,7.22
2022-12-14T08:25:08.610Z,7.15
2022-12-14T08:27:37.105Z,6.80
2022-12-14T08:30:06.731Z,7.40
2022-12-14T08:32:35.085Z,8.55
2022-12-14T08:35:03.568Z,6.85
2022-12-14T08:37:31.888Z,7.43
2022-12-14T08:40:00.557Z,7.85
2022-12-14T08:42:30.438Z,7.10
2022-12-14T08:44:58.945Z,6.80
2022-12-14T08:47:27.361Z,8.07
2022-12-14T08:49:55.756Z,6.78
2022-12-14T08:52:24.053Z,7.80
2022-12-14T08:54:52.344Z,8.52
2022-12-14T08:57:21.024Z,9.48
2022-12-14T09:00:06.265Z,9.27
2022-12-14T09:02:35.009Z,8.27
2022-12-14T09:05:03.876Z,8.45
2022-12-14T09:07:33.427Z,9.05
2022-12-14T09:10:01.755Z,9.63
2022-12-14T09:12:30.152Z,9.43
2022-12-14T09:15:01.094Z,9.07
2022-12-14T09:17:29.496Z,9.68
2022-12-14T09:19:58.368Z,10.20
2022-12-14T09:22:26.942Z,7.90
2022-12-14T09:24:55.306Z,8.50
2022-12-14T09:27:23.644Z,8.93
2022-12-14T09:29:52.225Z,9.43
2022-12-14T09:32:22.106Z,9.38
2022-12-14T09:34:50.421Z,8.85
2022-12-14T09:37:18.712Z,8.10
2022-12-14T09:39:47.067Z,7.50
2022-12-14T09:42:40.005Z,8.40
2022-12-14T09:45:17.796Z,9.20
2022-12-14T09:47:58.553Z,8.40
2022-12-14T09:50:27.774Z,8.70
2022-12-14T09:53:00.549Z,8.95
2022-12-14T09:55:33.751Z,8.95
2022-12-14T09:58:08.661Z,7.40
2022-12-14T10:00:49.617Z,10.48
2022-12-14T10:03:42.865Z,7.95
2022-12-14T10:06:37.370Z,8.18
2022-12-14T10:09:19.688Z,8.52
2022-12-14T10:12:02.673Z,8.43
2022-12-14T10:14:56.242Z,7.10
2022-12-14T10:17:34.614Z,9.43
2022-12-14T10:20:15.879Z,7.85
2022-12-14T10:22:52.452Z,8.55
2022-12-14T10:25:24.856Z,10.18
2022-12-14T10:28:10.999Z,8.48
2022-12-14T10:30:41.918Z,7.50
2022-12-14T10:33:18.124Z,8.40
2022-12-14T10:35:53.203Z,7.97
2022-12-14T10:38:29.693Z,8.57
2022-12-14T10:41:15.425Z,7.60
2022-12-14T10:43:56.336Z,7.85
2022-12-14T10:46:38.850Z,9.52
2022-12-14T10:49:16.689Z,8.18
2022-12-14T10:51:52.888Z,8.77
2022-12-14T10:54:33.802Z,8.50
2022-12-14T10:57:03.004Z,8.23
2022-12-14T10:59:44.766Z,8.07
2022-12-14T11:02:28.769Z,7.38
2022-12-14T11:05:00.216Z,8.65
2022-12-14T11:07:43.015Z,8.45
2022-12-14T11:10:18.906Z,8.10
2022-12-14T11:13:03.423Z,8.00
2022-12-14T11:15:36.306Z,8.75
2022-12-14T11:18:09.207Z,7.30
2022-12-14T11:20:37.692Z,8.23
2022-12-14T11:23:20.803Z,7.25
2022-12-14T11:25:51.520Z,7.97
2022-12-14T11:28:36.408Z,7.78
2022-12-14T11:31:08.477Z,8.27
2022-12-14T11:33:40.589Z,7.88
2022-12-14T11:36:10.089Z,7.80
2022-12-14T11:38:39.753Z,8.02
2022-12-14T11:41:11.932Z,7.10
2022-12-14T11:43:41.643Z,6.87
2022-12-14T11:46:09.973Z,7.50
2022-12-14T11:48:47.367Z,7.60
2022-12-14T11:51:15.650Z,7.40
2022-12-14T11:53:47.357Z,7.43
2022-12-14T11:56:19.050Z,8.33
2022-12-14T11:58:54.810Z,7.17
2022-12-14T12:01:27.533Z,7.33
2022-12-14T12:03:59.377Z,6.77
2022-12-14T12:06:30.934Z,7.47
2022-12-14T12:09:05.367Z,6.57
2022-12-14T12:11:36.288Z,7.07
2022-12-14T12:14:08.428Z,6.30
2022-12-14T12:16:37.552Z,6.73
2022-12-14T12:19:12.397Z,7.20
2022-12-14T12:21:44.711Z,6.37
2022-12-14T12:24:21.928Z,5.97
2022-12-14T12:26:53.911Z,7.30
2022-12-14T12:29:30.958Z,6.90
2022-12-14T12:33:53.535Z,6.23
2022-12-14T12:36:24.520Z,6.00
2022-12-14T12:39:06.798Z,6.03
2022-12-14T12:41:47.532Z,5.40
2022-12-14T12:44:39.425Z,8.00
2022-12-14T12:47:34.437Z,6.97
2022-12-14T12:50:16.885Z,6.30
2022-12-14T12:53:02.637Z,6.23
2022-12-14T12:55:36.613Z,6.70
2022-12-14T12:58:09.846Z,6.40
2022-12-14T13:00:41.231Z,5.57
2022-12-14T13:03:23.360Z,6.30
2022-12-14T13:05:57.496Z,6.23
2022-12-14T13:08:33.277Z,6.17
2022-12-14T13:14:01.750Z,6.23
2022-12-14T13:16:36.008Z,6.83
2022-12-14T13:19:48.892Z,5.60
2022-12-14T13:22:08.803Z,5.60
2022-12-14T13:24:39.201Z,6.90
2022-12-14T13:27:54.682Z,6.40
2022-12-14T13:30:35.872Z,6.40
2022-12-14T13:33:42.558Z,5.93
2022-12-14T13:37:05.176Z,6.13
2022-12-14T13:40:26.001Z,6.07
2022-12-14T13:43:06.953Z,7.37
2022-12-14T13:45:41.248Z,6.67
2022-12-14T13:48:21.588Z,6.63
2022-12-14T13:51:01.794Z,6.67
2022-12-14T13:53:36.375Z,6.30
2022-12-14T13:56:07.349Z,7.17
2022-12-14T13:58:41.095Z,6.97
2022-12-14T14:01:14.889Z,6.60
2022-12-14T14:03:55.361Z,7.10
2022-12-14T14:06:41.202Z,6.93
2022-12-14T14:10:02.702Z,7.50
2022-12-14T14:12:40.325Z,6.27
2022-12-14T14:16:28.426Z,6.27
2022-12-14T14:18:53.272Z,6.40
2022-12-14T14:21:58.819Z,6.33
2022-12-14T14:24:29.464Z,6.77
2022-12-14T14:27:12.457Z,6.00
2022-12-14T14:29:49.401Z,6.63
2022-12-14T14:32:39.527Z,6.50
2022-12-14T14:35:23.356Z,5.80
2022-12-14T14:38:01.764Z,6.27
2022-12-14T14:43:31.258Z,4.88
2022-12-14T14:46:05.752Z,6.50
2022-12-14T14:48:39.785Z,6.10
2022-12-14T14:51:21.347Z,6.50
2022-12-14T14:53:50.174Z,6.15
2022-12-14T14:56:38.207Z,7.43
2022-12-14T14:59:51.083Z,7.25
2022-12-14T15:02:42.158Z,7.13
2022-12-14T15:08:19.698Z,5.70
2022-12-14T15:10:49.679Z,5.93
2022-12-14T15:13:24.040Z,5.88
2022-12-14T15:15:54.920Z,6.32
2022-12-14T15:18:27.781Z,7.63
2022-12-14T15:21:01.905Z,6.85
2022-12-14T15:23:37.466Z,6.40
2022-12-14T15:26:17.098Z,6.13
2022-12-14T15:28:53.797Z,6.68
2022-12-14T15:31:32.134Z,6.40
2022-12-14T15:34:04.106Z,6.00
2022-12-14T15:36:37.845Z,6.35
2022-12-14T15:45:15.598Z,6.18
2022-12-14T15:47:44.098Z,6.60
2022-12-14T15:50:32.806Z,6.80
2022-12-14T15:53:14.262Z,6.47
2022-12-14T15:55:44.366Z,6.68
2022-12-14T15:58:24.601Z,6.43
2022-12-14T16:00:53.836Z,7.57
2022-12-14T16:03:31.455Z,7.30
2022-12-14T16:06:02.868Z,9.43
2022-12-14T16:08:35.184Z,8.55
2022-12-14T16:11:23.245Z,8.68
2022-12-14T16:14:22.118Z,7.75
2022-12-14T16:16:51.066Z,8.55
2022-12-14T16:19:27.760Z,8.73
2022-12-14T16:22:23.082Z,8.75
2022-12-14T16:25:19.322Z,10.40
2022-12-14T16:27:50.738Z,10.32
2022-12-14T16:30:25.206Z,12.27
2022-12-14T16:33:07.546Z,12.50
2022-12-14T16:54:32.774Z,12.02
2022-12-14T16:57:07.051Z,14.80
2022-12-14T16:59:41.963Z,16.60
2022-12-14T17:02:32.005Z,14.00
2022-12-14T17:05:04.325Z,11.90
2022-12-14T17:07:36.376Z,13.00
2022-12-14T17:10:05.971Z,12.55
2022-12-14T17:12:34.498Z,12.88
2022-12-14T17:15:03.124Z,12.55
2022-12-14T17:17:37.031Z,12.80
2022-12-14T17:20:13.433Z,12.68
2022-12-14T17:22:44.247Z,12.00
2022-12-14T17:25:19.162Z,10.70
2022-12-14T17:27:49.496Z,10.45
2022-12-14T17:30:21.913Z,13.10
2022-12-14T17:33:01.918Z,11.75
2022-12-14T17:35:32.929Z,11.45
2022-12-14T17:38:01.730Z,10.93
2022-12-14T17:40:30.246Z,11.68
2022-12-14T17:42:59.875Z,11.85
2022-12-14T17:45:30.230Z,13.07
2022-12-14T17:48:01.282Z,12.23
2022-12-14T17:50:31.003Z,13.55
2022-12-14T17:53:00.582Z,14.07
2022-12-14T17:55:30.468Z,14.48
2022-12-14T17:57:59.121Z,14.77
2022-12-14T18:00:48.477Z,12.02
2022-12-14T18:03:20.174Z,12.98
2022-12-14T18:05:50.791Z,12.52
2022-12-14T18:08:19.947Z,15.98
2022-12-14T18:10:51.998Z,10.35
2022-12-14T18:13:21.357Z,8.52
2022-12-14T18:15:52.244Z,10.70
2022-12-14T18:18:25.650Z,9.45
2022-12-14T18:20:56.783Z,11.90
2022-12-14T18:23:25.651Z,15.75
2022-12-14T18:25:56.512Z,16.60
2022-12-14T18:28:26.417Z,17.98
2022-12-14T18:31:00.006Z,17.60
2022-12-14T18:33:32.022Z,16.15
2022-12-14T18:36:00.812Z,13.85
2022-12-14T18:38:31.443Z,13.45
2022-12-14T18:41:01.707Z,13.25
2022-12-14T18:43:30.947Z,13.32
2022-12-14T18:46:02.167Z,13.35
2022-12-14T18:48:32.009Z,13.60
2022-12-14T18:51:00.917Z,12.00
2022-12-14T18:53:30.320Z,12.18
2022-12-14T18:55:59.875Z,13.00
2022-12-14T18:58:30.467Z,12.55
2022-12-14T19:01:00.894Z,11.98
2022-12-14T19:03:34.101Z,12.43
2022-12-14T19:06:42.337Z,11.27
2022-12-14T19:08:58.106Z,10.38
2022-12-14T19:11:34.067Z,12.57
2022-12-14T19:14:05.042Z,11.27
2022-12-14T19:16:33.593Z,10.20
2022-12-14T19:19:05.325Z,13.00
2022-12-14T19:21:33.825Z,12.40
2022-12-14T19:24:02.249Z,12.63
2022-12-14T19:26:31.865Z,21.58
2022-12-14T19:29:00.362Z,20.38
2022-12-14T19:31:29.139Z,20.88
2022-12-14T19:33:57.761Z,21.13
2022-12-14T19:36:27.797Z,21.38
2022-12-14T19:38:56.311Z,20.88
2022-12-14T19:41:24.671Z,19.60
2022-12-14T19:43:53.343Z,20.20
2022-12-14T19:46:23.939Z,16.75
2022-12-14T19:48:52.690Z,15.60
2022-12-14T19:51:23.845Z,14.75
2022-12-14T19:53:55.547Z,17.05
2022-12-14T19:56:24.094Z,17.50
2022-12-14T19:58:52.524Z,16.67
2022-12-14T20:01:21.149Z,18.17
2022-12-14T20:03:50.300Z,12.57
2022-12-14T20:06:18.988Z,10.35
2022-12-14T20:08:49.519Z,12.35
2022-12-14T20:11:20.512Z,11.48
2022-12-14T20:13:53.286Z,10.82
2022-12-14T20:16:26.537Z,10.32
2022-12-14T20:18:55.625Z,10.65
2022-12-14T20:21:24.253Z,14.85
2022-12-14T20:23:52.616Z,14.52
2022-12-14T20:26:24.076Z,13.95
2022-12-14T20:28:54.253Z,16.15
2022-12-14T20:31:23.460Z,14.57
2022-12-14T20:33:51.971Z,39.45
2022-12-14T20:36:25.789Z,23.60
2022-12-14T20:39:01.579Z,27.13
2022-12-14T20:41:32.731Z,20.67
2022-12-14T20:44:02.928Z,15.50
2022-12-14T20:46:33.835Z,16.23
2022-12-14T20:49:06.805Z,16.90
2022-12-14T20:51:38.276Z,15.07
2022-12-14T20:54:09.496Z,14.40
2022-12-14T20:56:40.080Z,13.63
2022-12-14T20:59:10.069Z,13.70
2022-12-14T21:01:40.613Z,13.20
2022-12-14T21:04:10.261Z,13.35
2022-12-14T21:06:40.505Z,12.90
2022-12-14T21:09:13.391Z,11.52
2022-12-14T21:12:03.373Z,13.15
2022-12-14T21:14:35.134Z,11.85
2022-12-14T21:17:05.746Z,10.50
2022-12-14T21:19:35.998Z,12.02
2022-12-14T21:22:04.646Z,15.20
2022-12-14T21:27:26.072Z,15.23
2022-12-14T21:29:55.291Z,13.30
2022-12-14T21:32:24.367Z,12.40
2022-12-14T21:34:52.934Z,12.13
2022-12-14T21:37:24.594Z,12.07
2022-12-14T21:39:54.154Z,11.90
2022-12-14T21:42:24.996Z,12.95
2022-12-14T21:44:55.222Z,11.98
2022-12-14T21:47:26.676Z,11.80
2022-12-14T21:49:55.545Z,12.35
2022-12-14T21:52:27.072Z,12.25
2022-12-14T21:54:55.919Z,11.82
2022-12-14T21:57:49.946Z,13.15
2022-12-14T22:00:20.838Z,12.27
2022-12-14T22:02:49.598Z,13.50
2022-12-14T22:05:18.555Z,12.10
2022-12-14T22:07:47.017Z,11.43
2022-12-14T22:10:18.806Z,11.20
2022-12-14T22:12:52.730Z,13.07
2022-12-14T22:15:21.398Z,12.05
2022-12-14T22:17:51.852Z,10.85
2022-12-14T22:20:23.404Z,12.20
2022-12-14T22:22:51.746Z,11.50
2022-12-14T22:25:20.146Z,11.23
2022-12-14T22:27:49.750Z,11.98
2022-12-14T22:30:21.187Z,11.25
2022-12-14T22:32:49.513Z,11.02
2022-12-14T22:35:18.160Z,11.15
2022-12-14T22:37:46.734Z,13.50
2022-12-14T22:40:18.631Z,12.82
2022-12-14T22:42:46.980Z,11.38
2022-12-14T22:45:15.620Z,9.05
2022-12-14T22:47:45.508Z,10.50
2022-12-14T22:50:13.871Z,10.90
2022-12-14T22:52:42.372Z,11.43
2022-12-14T22:55:12.474Z,10.98
2022-12-14T22:57:46.251Z,11.35
2022-12-14T23:00:16.968Z,10.80
2022-12-14T23:02:48.913Z,12.60
2022-12-14T23:05:18.468Z,12.75
2022-12-14T23:07:47.515Z,13.18
2022-12-14T23:10:33.530Z,13.65
2022-12-14T23:13:20.504Z,12.98
2022-12-14T23:16:06.573Z,13.63
2022-12-14T23:18:53.835Z,12.25
2022-12-14T23:21:39.476Z,11.73
2022-12-14T23:24:26.665Z,10.77
2022-12-14T23:27:12.621Z,9.75
2022-12-14T23:29:58.876Z,9.70
2022-12-14T23:32:45.497Z,10.05
2022-12-14T23:35:33.186Z,9.80
2022-12-14T23:38:23.628Z,8.55
2022-12-14T23:41:09.531Z,9.73
2022-12-14T23:43:55.312Z,10.48
2022-12-14T23:46:41.243Z,10.07
2022-12-14T23:49:27.460Z,9.68
2022-12-14T23:52:17.452Z,9.95
2022-12-14T23:55:03.340Z,8.60
2022-12-14T23:57:48.980Z,9.23
